Time,TemperatureF,DewpointF,PressureIn,WindDirection,WindDirectionDegrees,WindSpeedMPH,WindSpeedGustMPH,Humidity,HourlyPrecipIn,Conditions,Clouds,dailyrainin,SoftwareType,DateUTC
2015-08-04 00:12:00,71.2,65.8,29.72,SW,225,0.0,-999.0,83,-99.99,,,0.00,Acu-Link.com,2015-08-04 04:12:00,
2015-08-04 00:27:00,71.1,66.0,29.73,South,180,0.0,-999.0,84,-99.99,,,0.00,Acu-Link.com,2015-08-04 04:27:00,
2015-08-04 00:42:00,71.1,66.0,29.72,SSW,202,0.0,-999.0,84,-99.99,,,0.00,Acu-Link.com,2015-08-04 04:42:00,
2015-08-04 00:57:00,71.1,65.3,29.72,SSE,157,0.0,-999.0,82,-99.99,,,0.00,Acu-Link.com,2015-08-04 04:57:00,
2015-08-04 01:12:00,71.1,65.3,29.72,South,180,0.0,-999.0,82,-99.99,,,0.00,Acu-Link.com,2015-08-04 05:12:00,
2015-08-04 01:27:00,70.9,65.5,29.73,South,180,0.0,-999.0,83,-99.99,,,0.00,Acu-Link.com,2015-08-04 05:27:00,
2015-08-04 01:43:00,70.9,65.5,29.73,SSE,157,0.0,-999.0,83,-99.99,,,0.00,Acu-Link.com,2015-08-04 05:43:00,
2015-08-04 01:58:00,70.7,64.9,29.73,SSE,157,0.0,-999.0,82,-99.99,,,0.00,Acu-Link.com,2015-08-04 05:58:00,
2015-08-04 02:13:00,70.5,64.7,29.74,SSE,157,0.0,-999.0,82,-99.99,,,0.00,Acu-Link.com,2015-08-04 06:13:00,
2015-08-04 02:28:00,70.3,64.5,29.73,SSE,157,0.0,-999.0,82,-99.99,,,0.00,Acu-Link.com,2015-08-04 06:28:00,
2015-08-04 02:43:00,70.2,64.4,29.73,SW,225,0.0,-999.0,82,-99.99,,,0.00,Acu-Link.com,2015-08-04 06:43:00,
2015-08-04 02:58:00,70.2,64.8,29.73,SW,225,0.0,-999.0,83,-99.99,,,0.00,Acu-Link.com,2015-08-04 06:58:00,
2015-08-04 03:14:00,70.5,65.4,29.73,SSW,202,0.0,-999.0,84,-99.99,,,0.00,Acu-Link.com,2015-08-04 07:14:00,
2015-08-04 03:29:00,70.5,65.4,29.74,SW,225,0.0,-999.0,84,-99.99,,,0.00,Acu-Link.com,2015-08-04 07:29:00,
2015-08-04 03:44:00,70.5,65.4,29.74,South,180,0.0,-999.0,84,-99.99,,,0.00,Acu-Link.com,2015-08-04 07:44:00,
2015-08-04 03:59:00,70.5,65.8,29.74,SSW,202,0.0,-999.0,85,-99.99,,,0.00,Acu-Link.com,2015-08-04 07:59:00,
2015-08-04 04:14:00,70.9,65.8,29.76,SSW,202,0.0,-999.0,84,-99.99,,,0.00,Acu-Link.com,2015-08-04 08:14:00,
2015-08-04 04:29:00,71.1,65.7,29.76,South,180,0.0,-999.0,83,-99.99,,,0.00,Acu-Link.com,2015-08-04 08:29:00,
2015-08-04 04:45:00,71.1,65.7,29.78,South,180,0.0,-999.0,83,-99.99,,,0.00,Acu-Link.com,2015-08-04 08:45:00,
2015-08-04 05:00:00,71.1,66.4,29.80,West,270,1.1,-999.0,85,-99.99,,,0.00,Acu-Link.com,2015-08-04 09:00:00,
2015-08-04 05:15:00,68.9,66.2,29.83,WSW,247,7.3,-999.0,91,-99.99,,,0.27,Acu-Link.com,2015-08-04 09:15:00,
2015-08-04 05:30:00,67.8,65.4,29.77,NE,45,3.2,-999.0,92,-99.99,,,0.33,Acu-Link.com,2015-08-04 09:30:00,
2015-08-04 05:45:00,67.3,65.5,29.77,South,180,0.0,-999.0,94,-99.99,,,0.33,Acu-Link.com,2015-08-04 09:45:00,
2015-08-04 06:01:00,66.9,65.7,29.77,South,180,1.7,-999.0,96,-99.99,,,0.33,Acu-Link.com,2015-08-04 10:01:00,
2015-08-04 06:16:00,66.9,65.7,29.78,SSW,202,0.0,-999.0,96,-99.99,,,0.33,Acu-Link.com,2015-08-04 10:16:00,
2015-08-04 06:31:00,66.7,66.1,29.80,SSW,202,0.0,-999.0,98,-99.99,,,0.33,Acu-Link.com,2015-08-04 10:31:00,
2015-08-04 06:46:00,66.7,66.1,29.81,West,270,0.0,-999.0,98,-99.99,,,0.33,Acu-Link.com,2015-08-04 10:46:00,
2015-08-04 07:01:00,66.9,66.3,29.81,South,180,0.0,-999.0,98,-99.99,,,0.33,Acu-Link.com,2015-08-04 11:01:00,
2015-08-04 07:16:00,67.3,66.7,29.80,ESE,112,0.0,-999.0,98,-99.99,,,0.33,Acu-Link.com,2015-08-04 11:16:00,
2015-08-04 07:31:00,67.6,67.0,29.81,South,180,0.0,-999.0,98,-99.99,,,0.33,Acu-Link.com,2015-08-04 11:31:00,
2015-08-04 07:47:00,67.8,67.2,29.81,SSW,202,0.0,-999.0,98,-99.99,,,0.33,Acu-Link.com,2015-08-04 11:47:00,
2015-08-04 08:02:00,68.7,68.1,29.81,SW,225,0.0,-999.0,98,-99.99,,,0.33,Acu-Link.com,2015-08-04 12:02:00,
2015-08-04 08:17:00,69.6,68.7,29.81,SW,225,0.0,-999.0,97,-99.99,,,0.33,Acu-Link.com,2015-08-04 12:17:00,
2015-08-04 08:32:00,70.9,69.1,29.81,South,180,0.0,-999.0,94,-99.99,,,0.33,Acu-Link.com,2015-08-04 12:32:00,
2015-08-04 08:47:00,74.8,71.3,29.81,West,270,0.0,-999.0,89,-99.99,,,0.33,Acu-Link.com,2015-08-04 12:47:00,
2015-08-04 09:03:00,79.2,71.7,29.81,SSW,202,0.0,-999.0,78,-99.99,,,0.33,Acu-Link.com,2015-08-04 13:03:00,
2015-08-04 09:18:00,82.8,73.2,29.81,West,270,0.0,-999.0,73,-99.99,,,0.33,Acu-Link.com,2015-08-04 13:18:00,
2015-08-04 09:33:00,85.6,72.0,29.81,SSE,157,0.0,-999.0,64,-99.99,,,0.33,Acu-Link.com,2015-08-04 13:33:00,
2015-08-04 09:48:00,86.7,71.6,29.82,WNW,292,3.7,-999.0,61,-99.99,,,0.33,Acu-Link.com,2015-08-04 13:48:00,
2015-08-04 10:03:00,87.8,72.6,29.82,West,270,0.0,-999.0,61,-99.99,,,0.33,Acu-Link.com,2015-08-04 14:03:00,
2015-08-04 10:18:00,89.6,72.8,29.82,West,270,0.0,-999.0,58,-99.99,,,0.33,Acu-Link.com,2015-08-04 14:18:00,
2015-08-04 10:34:00,91.0,72.6,29.82,North,0,3.7,-999.0,55,-99.99,,,0.33,Acu-Link.com,2015-08-04 14:34:00,
2015-08-04 10:49:00,92.1,73.6,29.82,NW,315,0.0,-999.0,55,-99.99,,,0.33,Acu-Link.com,2015-08-04 14:49:00,
2015-08-04 11:04:00,94.8,73.8,29.82,SSW,202,0.0,-999.0,51,-99.99,,,0.33,Acu-Link.com,2015-08-04 15:04:00,
2015-08-04 11:19:00,95.9,73.0,29.82,South,180,0.0,-999.0,48,-99.99,,,0.33,Acu-Link.com,2015-08-04 15:19:00,
2015-08-04 11:34:00,96.6,73.6,29.82,WNW,292,0.0,-999.0,48,-99.99,,,0.33,Acu-Link.com,2015-08-04 15:34:00,
2015-08-04 11:49:00,97.2,72.3,29.82,West,270,2.7,-999.0,45,-99.99,,,0.33,Acu-Link.com,2015-08-04 15:49:00,
2015-08-04 12:05:00,97.9,73.5,29.82,SSW,202,0.0,-999.0,46,-99.99,,,0.33,Acu-Link.com,2015-08-04 16:05:00,
2015-08-04 12:20:00,97.7,71.4,29.82,West,270,2.7,-999.0,43,-99.99,,,0.33,Acu-Link.com,2015-08-04 16:20:00,
2015-08-04 12:35:00,97.5,72.5,29.82,West,270,2.2,-999.0,45,-99.99,,,0.33,Acu-Link.com,2015-08-04 16:35:00,
2015-08-04 12:50:00,98.4,72.0,29.82,SSE,157,0.0,-999.0,43,-99.99,,,0.33,Acu-Link.com,2015-08-04 16:50:00,
2015-08-04 13:05:00,99.5,72.3,29.82,SSW,202,0.0,-999.0,42,-99.99,,,0.33,Acu-Link.com,2015-08-04 17:05:00,
2015-08-04 13:20:00,99.9,72.6,29.81,NNW,337,1.7,-999.0,42,-99.99,,,0.33,Acu-Link.com,2015-08-04 17:20:00,
2015-08-04 13:36:00,98.1,71.7,29.82,South,180,1.1,-999.0,43,-99.99,,,0.33,Acu-Link.com,2015-08-04 17:36:00,
2015-08-04 13:51:00,97.5,70.5,29.81,West,270,1.7,-999.0,42,-99.99,,,0.33,Acu-Link.com,2015-08-04 17:51:00,
2015-08-04 14:06:00,98.2,71.8,29.81,WNW,292,7.3,-999.0,43,-99.99,,,0.33,Acu-Link.com,2015-08-04 18:06:00,
2015-08-04 14:21:00,95.0,69.6,29.81,West,270,0.0,-999.0,44,-99.99,,,0.33,Acu-Link.com,2015-08-04 18:21:00,
2015-08-04 14:36:00,93.4,70.7,29.80,SSW,202,0.0,-999.0,48,-99.99,,,0.33,Acu-Link.com,2015-08-04 18:36:00,
2015-08-04 14:51:00,91.8,71.1,29.79,South,180,0.0,-999.0,51,-99.99,,,0.33,Acu-Link.com,2015-08-04 18:51:00,
2015-08-04 15:06:00,92.1,68.3,29.79,WNW,292,3.7,-999.0,46,-99.99,,,0.33,Acu-Link.com,2015-08-04 19:06:00,
2015-08-04 15:21:00,91.9,70.0,29.79,SSW,202,0.0,-999.0,49,-99.99,,,0.33,Acu-Link.com,2015-08-04 19:21:00,
2015-08-04 15:37:00,92.3,70.3,29.78,West,270,3.7,-999.0,49,-99.99,,,0.33,Acu-Link.com,2015-08-04 19:37:00,
2015-08-04 15:52:00,92.8,70.2,29.78,WSW,247,1.7,-999.0,48,-99.99,,,0.33,Acu-Link.com,2015-08-04 19:52:00,
2015-08-04 16:09:00,92.1,71.3,29.78,West,270,0.0,-999.0,51,-99.99,,,0.33,Acu-Link.com,2015-08-04 20:09:00,
2015-08-04 16:24:00,91.6,70.3,29.78,South,180,0.0,-999.0,50,-99.99,,,0.33,Acu-Link.com,2015-08-04 20:24:00,
2015-08-04 16:39:00,93.0,71.6,29.78,WNW,292,0.0,-999.0,50,-99.99,,,0.33,Acu-Link.com,2015-08-04 20:39:00,
2015-08-04 16:55:00,93.0,71.0,29.78,SSE,157,1.1,-999.0,49,-99.99,,,0.33,Acu-Link.com,2015-08-04 20:55:00,
2015-08-04 17:10:00,92.7,70.1,29.77,West,270,0.0,-999.0,48,-99.99,,,0.33,Acu-Link.com,2015-08-04 21:10:00,
2015-08-04 17:26:00,92.1,69.5,29.77,West,270,2.2,-999.0,48,-99.99,,,0.33,Acu-Link.com,2015-08-04 21:26:00,
2015-08-04 17:41:00,92.5,70.5,29.77,West,270,2.2,-999.0,49,-99.99,,,0.33,Acu-Link.com,2015-08-04 21:41:00,
2015-08-04 17:56:00,90.5,69.9,29.76,West,270,0.0,-999.0,51,-99.99,,,0.33,Acu-Link.com,2015-08-04 21:56:00,
2015-08-04 18:11:00,88.7,69.9,29.77,West,270,2.7,-999.0,54,-99.99,,,0.33,Acu-Link.com,2015-08-04 22:11:00,
2015-08-04 18:26:00,87.8,70.6,29.76,WSW,247,0.0,-999.0,57,-99.99,,,0.33,Acu-Link.com,2015-08-04 22:26:00,
2015-08-04 18:42:00,87.3,69.7,29.76,WSW,247,1.1,-999.0,56,-99.99,,,0.33,Acu-Link.com,2015-08-04 22:42:00,
2015-08-04 18:57:00,85.1,70.1,29.77,South,180,0.0,-999.0,61,-99.99,,,0.33,Acu-Link.com,2015-08-04 22:57:00,